sensor_id;sensor_type;location;lat;lon;timestamp;temperature;humidity
254;DHT22;590;48.772;8.846;2023-09-19T00:02:17;18.30;71.60
254;DHT22;590;48.772;8.846;2023-09-19T00:04:45;18.30;71.50
254;DHT22;590;48.772;8.846;2023-09-19T00:07:13;18.30;71.70
254;DHT22;590;48.772;8.846;2023-09-19T00:09:43;18.30;71.90
254;DHT22;590;48.772;8.846;2023-09-19T00:12:11;18.30;71.80
254;DHT22;590;48.772;8.846;2023-09-19T00:14:50;18.30;71.90
254;DHT22;590;48.772;8.846;2023-09-19T00:17:20;18.30;72.40
254;DHT22;590;48.772;8.846;2023-09-19T00:19:49;18.30;72.20
254;DHT22;590;48.772;8.846;2023-09-19T00:22:19;18.30;72.00
254;DHT22;590;48.772;8.846;2023-09-19T00:24:47;18.30;72.10
254;DHT22;590;48.772;8.846;2023-09-19T00:27:15;18.30;72.40
254;DHT22;590;48.772;8.846;2023-09-19T00:29:43;18.30;73.00
254;DHT22;590;48.772;8.846;2023-09-19T00:32:11;18.30;72.60
254;DHT22;590;48.772;8.846;2023-09-19T00:34:40;18.30;72.60
254;DHT22;590;48.772;8.846;2023-09-19T00:37:09;18.30;72.50
254;DHT22;590;48.772;8.846;2023-09-19T00:39:38;18.20;72.10
254;DHT22;590;48.772;8.846;2023-09-19T00:42:07;18.20;71.90
254;DHT22;590;48.772;8.846;2023-09-19T00:44:35;18.20;72.00
254;DHT22;590;48.772;8.846;2023-09-19T00:47:04;18.20;71.90
254;DHT22;590;48.772;8.846;2023-09-19T00:49:32;18.20;71.90
254;DHT22;590;48.772;8.846;2023-09-19T00:52:02;18.20;72.10
254;DHT22;590;48.772;8.846;2023-09-19T00:54:31;18.20;72.60
254;DHT22;590;48.772;8.846;2023-09-19T00:57:00;18.20;72.50
254;DHT22;590;48.772;8.846;2023-09-19T00:59:28;18.10;72.40
254;DHT22;590;48.772;8.846;2023-09-19T01:01:58;18.10;72.40
254;DHT22;590;48.772;8.846;2023-09-19T01:04:27;18.10;72.60
254;DHT22;590;48.772;8.846;2023-09-19T01:06:55;18.10;72.50
254;DHT22;590;48.772;8.846;2023-09-19T01:09:26;18.10;72.40
254;DHT22;590;48.772;8.846;2023-09-19T01:11:58;18.10;72.40
254;DHT22;590;48.772;8.846;2023-09-19T01:14:33;18.00;72.30
254;DHT22;590;48.772;8.846;2023-09-19T01:17:05;18.00;72.80
254;DHT22;590;48.772;8.846;2023-09-19T01:20:03;18.00;72.90
254;DHT22;590;48.772;8.846;2023-09-19T01:22:41;18.00;72.60
254;DHT22;590;48.772;8.846;2023-09-19T01:25:49;18.10;72.70
254;DHT22;590;48.772;8.846;2023-09-19T01:28:30;18.00;73.30
254;DHT22;590;48.772;8.846;2023-09-19T01:31:09;18.00;73.40
254;DHT22;590;48.772;8.846;2023-09-19T01:33:54;18.00;73.70
254;DHT22;590;48.772;8.846;2023-09-19T01:36:27;18.00;73.40
254;DHT22;590;48.772;8.846;2023-09-19T01:38:57;18.00;73.70
254;DHT22;590;48.772;8.846;2023-09-19T01:41:56;17.90;73.30
254;DHT22;590;48.772;8.846;2023-09-19T01:44:34;17.90;73.00
254;DHT22;590;48.772;8.846;2023-09-19T01:47:13;17.90;72.90
254;DHT22;590;48.772;8.846;2023-09-19T01:49:50;17.90;72.70
254;DHT22;590;48.772;8.846;2023-09-19T01:52:21;17.90;72.80
254;DHT22;590;48.772;8.846;2023-09-19T01:54:51;17.90;72.90
254;DHT22;590;48.772;8.846;2023-09-19T01:57:25;17.80;73.00
254;DHT22;590;48.772;8.846;2023-09-19T02:00:00;17.80;73.20
254;DHT22;590;48.772;8.846;2023-09-19T02:02:35;17.80;73.20
254;DHT22;590;48.772;8.846;2023-09-19T02:05:04;17.70;73.20
254;DHT22;590;48.772;8.846;2023-09-19T02:07:33;17.70;73.60
254;DHT22;590;48.772;8.846;2023-09-19T02:10:05;17.70;74.60
254;DHT22;590;48.772;8.846;2023-09-19T02:12:37;17.60;74.90
254;DHT22;590;48.772;8.846;2023-09-19T02:15:06;17.60;74.90
254;DHT22;590;48.772;8.846;2023-09-19T02:17:36;17.60;75.10
254;DHT22;590;48.772;8.846;2023-09-19T02:20:05;17.60;75.40
254;DHT22;590;48.772;8.846;2023-09-19T02:22:41;17.50;76.10
254;DHT22;590;48.772;8.846;2023-09-19T02:25:09;17.50;75.50
254;DHT22;590;48.772;8.846;2023-09-19T02:27:38;17.50;75.70
254;DHT22;590;48.772;8.846;2023-09-19T02:30:07;17.40;75.90
254;DHT22;590;48.772;8.846;2023-09-19T02:32:37;17.40;76.40
254;DHT22;590;48.772;8.846;2023-09-19T02:35:07;17.40;77.40
254;DHT22;590;48.772;8.846;2023-09-19T02:37:38;17.40;78.30
254;DHT22;590;48.772;8.846;2023-09-19T02:40:07;17.30;78.10
254;DHT22;590;48.772;8.846;2023-09-19T02:42:46;17.30;78.40
254;DHT22;590;48.772;8.846;2023-09-19T02:45:17;17.30;79.70
254;DHT22;590;48.772;8.846;2023-09-19T02:47:47;17.30;79.80
254;DHT22;590;48.772;8.846;2023-09-19T02:50:16;17.30;80.40
254;DHT22;590;48.772;8.846;2023-09-19T02:52:45;17.30;80.50
254;DHT22;590;48.772;8.846;2023-09-19T02:55:14;17.30;80.60
254;DHT22;590;48.772;8.846;2023-09-19T02:57:46;17.30;80.50
254;DHT22;590;48.772;8.846;2023-09-19T03:00:15;17.30;81.10
254;DHT22;590;48.772;8.846;2023-09-19T03:02:43;17.40;81.20
254;DHT22;590;48.772;8.846;2023-09-19T03:05:14;17.40;80.90
254;DHT22;590;48.772;8.846;2023-09-19T03:07:43;17.40;80.70
254;DHT22;590;48.772;8.846;2023-09-19T03:10:12;17.40;80.60
254;DHT22;590;48.772;8.846;2023-09-19T03:12:41;17.40;80.40
254;DHT22;590;48.772;8.846;2023-09-19T03:15:10;17.40;79.80
254;DHT22;590;48.772;8.846;2023-09-19T03:17:38;17.50;79.50
254;DHT22;590;48.772;8.846;2023-09-19T03:20:11;17.50;78.90
254;DHT22;590;48.772;8.846;2023-09-19T03:22:42;17.60;78.70
254;DHT22;590;48.772;8.846;2023-09-19T03:25:10;17.60;78.40
254;DHT22;590;48.772;8.846;2023-09-19T03:27:39;17.60;78.10
254;DHT22;590;48.772;8.846;2023-09-19T03:30:08;17.60;77.30
254;DHT22;590;48.772;8.846;2023-09-19T03:32:36;17.70;77.00
254;DHT22;590;48.772;8.846;2023-09-19T03:35:05;17.70;76.50
254;DHT22;590;48.772;8.846;2023-09-19T03:37:33;17.80;76.00
254;DHT22;590;48.772;8.846;2023-09-19T03:40:03;17.70;75.60
254;DHT22;590;48.772;8.846;2023-09-19T03:42:32;17.80;75.60
254;DHT22;590;48.772;8.846;2023-09-19T03:45:03;17.80;75.40
254;DHT22;590;48.772;8.846;2023-09-19T03:47:33;17.80;74.80
254;DHT22;590;48.772;8.846;2023-09-19T03:50:01;17.80;75.00
254;DHT22;590;48.772;8.846;2023-09-19T03:52:29;17.80;75.20
254;DHT22;590;48.772;8.846;2023-09-19T03:54:57;17.90;75.20
254;DHT22;590;48.772;8.846;2023-09-19T03:57:27;17.80;75.00
254;DHT22;590;48.772;8.846;2023-09-19T03:59:55;17.90;74.90
254;DHT22;590;48.772;8.846;2023-09-19T04:02:23;17.90;74.90
254;DHT22;590;48.772;8.846;2023-09-19T04:04:52;18.00;74.90
254;DHT22;590;48.772;8.846;2023-09-19T04:07:20;18.00;75.10
254;DHT22;590;48.772;8.846;2023-09-19T04:09:49;18.00;74.90
254;DHT22;590;48.772;8.846;2023-09-19T04:12:20;18.00;74.40
254;DHT22;590;48.772;8.846;2023-09-19T04:14:49;18.00;74.70
254;DHT22;590;48.772;8.846;2023-09-19T04:17:18;18.00;73.90
254;DHT22;590;48.772;8.846;2023-09-19T04:19:46;18.00;73.60
254;DHT22;590;48.772;8.846;2023-09-19T04:22:14;18.00;73.60
254;DHT22;590;48.772;8.846;2023-09-19T04:24:42;18.00;73.70
254;DHT22;590;48.772;8.846;2023-09-19T04:27:11;18.00;74.00
254;DHT22;590;48.772;8.846;2023-09-19T04:29:41;18.00;74.00
254;DHT22;590;48.772;8.846;2023-09-19T04:32:10;18.10;75.50
254;DHT22;590;48.772;8.846;2023-09-19T04:34:40;18.00;77.60
254;DHT22;590;48.772;8.846;2023-09-19T04:37:08;18.00;80.60
254;DHT22;590;48.772;8.846;2023-09-19T04:39:36;18.00;82.30
254;DHT22;590;48.772;8.846;2023-09-19T04:42:04;17.90;83.50
254;DHT22;590;48.772;8.846;2023-09-19T04:44:45;17.80;86.30
254;DHT22;590;48.772;8.846;2023-09-19T04:47:17;17.80;90.20
254;DHT22;590;48.772;8.846;2023-09-19T04:49:48;17.80;91.70
254;DHT22;590;48.772;8.846;2023-09-19T04:52:16;17.70;92.20
254;DHT22;590;48.772;8.846;2023-09-19T04:54:45;17.70;92.60
254;DHT22;590;48.772;8.846;2023-09-19T04:57:15;17.70;93.80
254;DHT22;590;48.772;8.846;2023-09-19T04:59:43;17.70;95.20
254;DHT22;590;48.772;8.846;2023-09-19T05:02:13;17.60;95.50
254;DHT22;590;48.772;8.846;2023-09-19T05:04:42;17.60;95.50
254;DHT22;590;48.772;8.846;2023-09-19T05:07:10;17.50;95.20
254;DHT22;590;48.772;8.846;2023-09-19T05:09:38;17.40;95.40
254;DHT22;590;48.772;8.846;2023-09-19T05:12:09;17.40;96.60
254;DHT22;590;48.772;8.846;2023-09-19T05:14:50;17.30;98.00
254;DHT22;590;48.772;8.846;2023-09-19T05:17:18;17.20;99.10
254;DHT22;590;48.772;8.846;2023-09-19T05:19:48;17.20;99.90
254;DHT22;590;48.772;8.846;2023-09-19T05:22:16;17.10;99.90
254;DHT22;590;48.772;8.846;2023-09-19T05:24:45;17.10;99.90
254;DHT22;590;48.772;8.846;2023-09-19T05:27:15;17.10;99.90
254;DHT22;590;48.772;8.846;2023-09-19T05:29:44;17.10;99.90
254;DHT22;590;48.772;8.846;2023-09-19T05:32:15;17.10;99.90
254;DHT22;590;48.772;8.846;2023-09-19T05:34:44;17.10;99.90
254;DHT22;590;48.772;8.846;2023-09-19T05:37:15;17.00;99.90
254;DHT22;590;48.772;8.846;2023-09-19T05:39:43;17.00;99.90
254;DHT22;590;48.772;8.846;2023-09-19T05:42:11;17.00;99.90
254;DHT22;590;48.772;8.846;2023-09-19T05:44:40;16.90;99.90
254;DHT22;590;48.772;8.846;2023-09-19T05:47:08;17.00;99.90
254;DHT22;590;48.772;8.846;2023-09-19T05:49:36;16.90;99.90
254;DHT22;590;48.772;8.846;2023-09-19T05:52:08;16.90;99.90
254;DHT22;590;48.772;8.846;2023-09-19T05:54:37;17.00;99.90
254;DHT22;590;48.772;8.846;2023-09-19T05:57:05;16.90;99.80
254;DHT22;590;48.772;8.846;2023-09-19T05:59:33;16.90;99.10
254;DHT22;590;48.772;8.846;2023-09-19T06:02:02;16.80;99.00
254;DHT22;590;48.772;8.846;2023-09-19T06:04:32;16.90;98.90
254;DHT22;590;48.772;8.846;2023-09-19T06:07:00;16.90;98.90
254;DHT22;590;48.772;8.846;2023-09-19T06:09:29;16.90;99.10
254;DHT22;590;48.772;8.846;2023-09-19T06:12:00;17.00;99.00
254;DHT22;590;48.772;8.846;2023-09-19T06:14:30;17.10;99.00
254;DHT22;590;48.772;8.846;2023-09-19T06:16:58;17.20;98.70
254;DHT22;590;48.772;8.846;2023-09-19T06:19:27;17.30;98.50
254;DHT22;590;48.772;8.846;2023-09-19T06:21:55;17.40;98.10
254;DHT22;590;48.772;8.846;2023-09-19T06:24:23;17.50;97.20
254;DHT22;590;48.772;8.846;2023-09-19T06:26:52;17.70;96.30
254;DHT22;590;48.772;8.846;2023-09-19T06:29:21;17.90;96.10
254;DHT22;590;48.772;8.846;2023-09-19T06:31:49;18.00;94.90
254;DHT22;590;48.772;8.846;2023-09-19T06:34:18;18.20;92.30
254;DHT22;590;48.772;8.846;2023-09-19T06:36:46;18.40;90.30
254;DHT22;590;48.772;8.846;2023-09-19T06:39:14;18.50;88.60
254;DHT22;590;48.772;8.846;2023-09-19T06:41:42;18.70;86.80
254;DHT22;590;48.772;8.846;2023-09-19T06:44:12;18.80;84.90
254;DHT22;590;48.772;8.846;2023-09-19T06:46:41;18.90;83.40
254;DHT22;590;48.772;8.846;2023-09-19T06:49:11;19.00;82.30
254;DHT22;590;48.772;8.846;2023-09-19T06:51:42;19.10;81.40
254;DHT22;590;48.772;8.846;2023-09-19T06:54:10;19.20;79.90
254;DHT22;590;48.772;8.846;2023-09-19T06:56:38;19.20;80.00
254;DHT22;590;48.772;8.846;2023-09-19T06:59:08;19.20;78.20
254;DHT22;590;48.772;8.846;2023-09-19T07:01:36;19.30;77.20
254;DHT22;590;48.772;8.846;2023-09-19T07:04:06;19.30;76.40
254;DHT22;590;48.772;8.846;2023-09-19T07:06:34;19.30;76.50
254;DHT22;590;48.772;8.846;2023-09-19T07:09:02;19.30;76.60
254;DHT22;590;48.772;8.846;2023-09-19T07:11:31;19.30;76.20
254;DHT22;590;48.772;8.846;2023-09-19T07:14:00;19.40;76.00
254;DHT22;590;48.772;8.846;2023-09-19T07:16:32;19.50;75.70
254;DHT22;590;48.772;8.846;2023-09-19T07:19:00;19.50;75.20
254;DHT22;590;48.772;8.846;2023-09-19T07:21:30;19.60;75.30
254;DHT22;590;48.772;8.846;2023-09-19T07:23:59;19.60;75.00
254;DHT22;590;48.772;8.846;2023-09-19T07:26:29;19.70;72.70
254;DHT22;590;48.772;8.846;2023-09-19T07:28:58;19.90;72.60
254;DHT22;590;48.772;8.846;2023-09-19T07:31:26;20.00;71.10
254;DHT22;590;48.772;8.846;2023-09-19T07:33:55;20.10;67.00
254;DHT22;590;48.772;8.846;2023-09-19T07:36:23;20.20;66.20
254;DHT22;590;48.772;8.846;2023-09-19T07:38:53;20.30;67.60
254;DHT22;590;48.772;8.846;2023-09-19T07:41:29;20.40;66.60
254;DHT22;590;48.772;8.846;2023-09-19T07:43:57;20.50;66.20
254;DHT22;590;48.772;8.846;2023-09-19T07:46:25;20.70;63.30
254;DHT22;590;48.772;8.846;2023-09-19T07:48:53;21.00;63.50
254;DHT22;590;48.772;8.846;2023-09-19T07:51:21;21.20;60.90
254;DHT22;590;48.772;8.846;2023-09-19T07:53:49;21.30;60.50
254;DHT22;590;48.772;8.846;2023-09-19T07:56:19;21.30;56.20
254;DHT22;590;48.772;8.846;2023-09-19T07:58:47;21.20;56.70
254;DHT22;590;48.772;8.846;2023-09-19T08:01:15;21.20;57.10
254;DHT22;590;48.772;8.846;2023-09-19T08:03:43;21.30;58.30
254;DHT22;590;48.772;8.846;2023-09-19T08:06:12;21.30;58.30
254;DHT22;590;48.772;8.846;2023-09-19T08:08:41;21.40;57.50
254;DHT22;590;48.772;8.846;2023-09-19T08:11:09;21.50;56.40
254;DHT22;590;48.772;8.846;2023-09-19T08:13:40;21.50;57.80
254;DHT22;590;48.772;8.846;2023-09-19T08:16:10;21.60;55.00
254;DHT22;590;48.772;8.846;2023-09-19T08:18:39;21.80;53.60
254;DHT22;590;48.772;8.846;2023-09-19T08:21:08;22.00;51.90
254;DHT22;590;48.772;8.846;2023-09-19T08:23:37;22.20;50.50
254;DHT22;590;48.772;8.846;2023-09-19T08:26:06;22.30;49.20
254;DHT22;590;48.772;8.846;2023-09-19T08:28:35;22.30;46.90
254;DHT22;590;48.772;8.846;2023-09-19T08:31:05;22.20;45.20
254;DHT22;590;48.772;8.846;2023-09-19T08:33:35;22.10;46.70
254;DHT22;590;48.772;8.846;2023-09-19T08:36:05;22.20;46.70
254;DHT22;590;48.772;8.846;2023-09-19T08:38:35;22.30;43.90
254;DHT22;590;48.772;8.846;2023-09-19T08:41:06;22.40;44.00
254;DHT22;590;48.772;8.846;2023-09-19T08:43:35;22.50;41.70
254;DHT22;590;48.772;8.846;2023-09-19T08:46:10;22.70;40.90
254;DHT22;590;48.772;8.846;2023-09-19T08:48:45;22.80;41.00
254;DHT22;590;48.772;8.846;2023-09-19T08:51:18;22.90;38.40
254;DHT22;590;48.772;8.846;2023-09-19T08:53:51;23.00;34.60
254;DHT22;590;48.772;8.846;2023-09-19T08:56:19;23.00;31.20
254;DHT22;590;48.772;8.846;2023-09-19T08:58:51;23.00;32.00
254;DHT22;590;48.772;8.846;2023-09-19T09:01:23;23.00;32.00
254;DHT22;590;48.772;8.846;2023-09-19T09:03:53;23.00;31.90
254;DHT22;590;48.772;8.846;2023-09-19T09:06:22;23.00;28.90
254;DHT22;590;48.772;8.846;2023-09-19T09:08:51;23.10;29.40
254;DHT22;590;48.772;8.846;2023-09-19T09:11:20;23.20;29.90
254;DHT22;590;48.772;8.846;2023-09-19T09:13:50;23.20;25.90
254;DHT22;590;48.772;8.846;2023-09-19T09:16:18;23.10;25.60
254;DHT22;590;48.772;8.846;2023-09-19T09:18:49;22.90;24.80
254;DHT22;590;48.772;8.846;2023-09-19T09:21:20;22.80;26.20
254;DHT22;590;48.772;8.846;2023-09-19T09:23:49;22.60;27.10
254;DHT22;590;48.772;8.846;2023-09-19T09:26:40;22.60;26.50
254;DHT22;590;48.772;8.846;2023-09-19T09:29:09;22.50;26.00
254;DHT22;590;48.772;8.846;2023-09-19T09:31:36;22.50;27.00
254;DHT22;590;48.772;8.846;2023-09-19T09:34:06;22.50;26.80
254;DHT22;590;48.772;8.846;2023-09-19T09:36:35;22.50;26.20
254;DHT22;590;48.772;8.846;2023-09-19T09:39:04;22.50;26.30
254;DHT22;590;48.772;8.846;2023-09-19T09:41:45;22.50;24.90
254;DHT22;590;48.772;8.846;2023-09-19T09:44:16;22.50;25.90
254;DHT22;590;48.772;8.846;2023-09-19T09:46:45;22.50;25.80
254;DHT22;590;48.772;8.846;2023-09-19T09:49:48;22.50;25.90
254;DHT22;590;48.772;8.846;2023-09-19T09:52:44;22.50;26.40
254;DHT22;590;48.772;8.846;2023-09-19T09:55:13;22.60;26.00
254;DHT22;590;48.772;8.846;2023-09-19T09:57:41;22.50;25.10
254;DHT22;590;48.772;8.846;2023-09-19T10:00:11;22.40;23.90
254;DHT22;590;48.772;8.846;2023-09-19T10:02:47;22.40;24.90
254;DHT22;590;48.772;8.846;2023-09-19T10:05:18;22.40;25.50
254;DHT22;590;48.772;8.846;2023-09-19T10:07:50;22.40;24.90
254;DHT22;590;48.772;8.846;2023-09-19T10:10:31;22.50;25.50
254;DHT22;590;48.772;8.846;2023-09-19T10:13:13;22.80;24.40
254;DHT22;590;48.772;8.846;2023-09-19T10:15:48;22.90;22.30
254;DHT22;590;48.772;8.846;2023-09-19T10:18:20;23.10;22.10
254;DHT22;590;48.772;8.846;2023-09-19T10:20:50;23.30;21.30
254;DHT22;590;48.772;8.846;2023-09-19T10:23:20;23.40;22.10
254;DHT22;590;48.772;8.846;2023-09-19T10:25:50;23.50;21.60
254;DHT22;590;48.772;8.846;2023-09-19T10:28:20;23.70;19.30
254;DHT22;590;48.772;8.846;2023-09-19T10:30:50;23.70;17.30
254;DHT22;590;48.772;8.846;2023-09-19T10:33:21;23.70;18.30
254;DHT22;590;48.772;8.846;2023-09-19T10:35:51;23.90;18.20
254;DHT22;590;48.772;8.846;2023-09-19T10:38:24;24.00;17.20
254;DHT22;590;48.772;8.846;2023-09-19T10:40:53;24.20;17.60
254;DHT22;590;48.772;8.846;2023-09-19T10:43:26;24.40;15.20
254;DHT22;590;48.772;8.846;2023-09-19T10:46:02;24.40;14.60
254;DHT22;590;48.772;8.846;2023-09-19T10:48:31;24.40;13.80
254;DHT22;590;48.772;8.846;2023-09-19T10:51:05;24.40;13.30
254;DHT22;590;48.772;8.846;2023-09-19T10:53:42;24.40;12.70
254;DHT22;590;48.772;8.846;2023-09-19T10:56:11;24.50;11.60
254;DHT22;590;48.772;8.846;2023-09-19T10:58:44;24.60;11.70
254;DHT22;590;48.772;8.846;2023-09-19T11:01:13;24.70;13.40
254;DHT22;590;48.772;8.846;2023-09-19T11:03:42;24.80;10.50
254;DHT22;590;48.772;8.846;2023-09-19T11:06:14;24.90;12.10
254;DHT22;590;48.772;8.846;2023-09-19T11:09:00;24.90;12.10
254;DHT22;590;48.772;8.846;2023-09-19T11:11:44;24.80;11.80
254;DHT22;590;48.772;8.846;2023-09-19T11:14:30;24.70;10.90
254;DHT22;590;48.772;8.846;2023-09-19T11:20:22;24.70;9.30
254;DHT22;590;48.772;8.846;2023-09-19T11:23:28;24.60;10.10
254;DHT22;590;48.772;8.846;2023-09-19T11:25:57;24.60;10.30
254;DHT22;590;48.772;8.846;2023-09-19T11:28:35;24.60;10.60
254;DHT22;590;48.772;8.846;2023-09-19T11:34:40;24.70;10.30
254;DHT22;590;48.772;8.846;2023-09-19T11:40:44;25.00;10.60
254;DHT22;590;48.772;8.846;2023-09-19T11:43:33;25.00;10.00
254;DHT22;590;48.772;8.846;2023-09-19T11:46:09;24.80;9.90
254;DHT22;590;48.772;8.846;2023-09-19T11:48:41;24.70;9.60
254;DHT22;590;48.772;8.846;2023-09-19T11:51:12;24.60;10.60
254;DHT22;590;48.772;8.846;2023-09-19T11:53:46;24.40;11.00
254;DHT22;590;48.772;8.846;2023-09-19T11:56:18;24.30;11.30
254;DHT22;590;48.772;8.846;2023-09-19T11:58:49;24.20;12.30
254;DHT22;590;48.772;8.846;2023-09-19T12:01:23;24.10;12.30
254;DHT22;590;48.772;8.846;2023-09-19T12:03:58;24.00;12.00
254;DHT22;590;48.772;8.846;2023-09-19T12:06:28;23.90;12.40
254;DHT22;590;48.772;8.846;2023-09-19T12:08:57;23.80;11.90
254;DHT22;590;48.772;8.846;2023-09-19T12:11:30;23.70;11.80
254;DHT22;590;48.772;8.846;2023-09-19T12:14:01;23.60;12.00
254;DHT22;590;48.772;8.846;2023-09-19T12:16:31;23.50;12.50
254;DHT22;590;48.772;8.846;2023-09-19T12:19:19;23.40;13.30
254;DHT22;590;48.772;8.846;2023-09-19T12:21:58;23.30;12.70
254;DHT22;590;48.772;8.846;2023-09-19T12:24:31;23.40;13.80
254;DHT22;590;48.772;8.846;2023-09-19T12:27:02;23.40;11.80
254;DHT22;590;48.772;8.846;2023-09-19T12:29:42;23.40;12.30
254;DHT22;590;48.772;8.846;2023-09-19T12:32:10;23.40;11.00
254;DHT22;590;48.772;8.846;2023-09-19T12:34:38;23.60;10.80
254;DHT22;590;48.772;8.846;2023-09-19T12:37:11;23.70;10.60
254;DHT22;590;48.772;8.846;2023-09-19T12:39:41;23.90;10.20
254;DHT22;590;48.772;8.846;2023-09-19T12:42:11;24.00;8.80
254;DHT22;590;48.772;8.846;2023-09-19T12:44:46;24.20;9.50
254;DHT22;590;48.772;8.846;2023-09-19T12:47:16;24.40;11.10
254;DHT22;590;48.772;8.846;2023-09-19T12:50:06;24.50;11.10
254;DHT22;590;48.772;8.846;2023-09-19T12:52:41;24.60;9.10
254;DHT22;590;48.772;8.846;2023-09-19T12:55:20;24.60;8.20
254;DHT22;590;48.772;8.846;2023-09-19T12:58:13;24.60;8.40
254;DHT22;590;48.772;8.846;2023-09-19T13:00:43;24.70;8.10
254;DHT22;590;48.772;8.846;2023-09-19T13:03:17;24.70;7.10
254;DHT22;590;48.772;8.846;2023-09-19T13:05:50;24.70;7.20
254;DHT22;590;48.772;8.846;2023-09-19T13:08:21;24.70;7.90
254;DHT22;590;48.772;8.846;2023-09-19T13:11:11;24.80;6.90
254;DHT22;590;48.772;8.846;2023-09-19T13:13:45;24.90;7.10
254;DHT22;590;48.772;8.846;2023-09-19T13:16:17;25.00;6.60
254;DHT22;590;48.772;8.846;2023-09-19T13:18:50;25.00;6.10
254;DHT22;590;48.772;8.846;2023-09-19T13:21:28;25.00;5.60
254;DHT22;590;48.772;8.846;2023-09-19T13:24:17;25.10;5.90
254;DHT22;590;48.772;8.846;2023-09-19T13:26:46;25.10;6.90
254;DHT22;590;48.772;8.846;2023-09-19T13:29:15;25.10;6.90
254;DHT22;590;48.772;8.846;2023-09-19T13:31:46;25.20;7.20
254;DHT22;590;48.772;8.846;2023-09-19T13:34:14;25.10;6.60
254;DHT22;590;48.772;8.846;2023-09-19T13:36:44;25.10;7.10
254;DHT22;590;48.772;8.846;2023-09-19T13:39:15;25.00;7.10
254;DHT22;590;48.772;8.846;2023-09-19T13:41:44;25.00;7.20
254;DHT22;590;48.772;8.846;2023-09-19T13:44:15;25.00;7.90
254;DHT22;590;48.772;8.846;2023-09-19T13:46:44;25.00;6.60
254;DHT22;590;48.772;8.846;2023-09-19T13:49:14;25.00;7.70
254;DHT22;590;48.772;8.846;2023-09-19T13:51:42;24.90;6.80
254;DHT22;590;48.772;8.846;2023-09-19T13:54:11;24.80;8.00
254;DHT22;590;48.772;8.846;2023-09-19T13:56:41;24.70;7.70
254;DHT22;590;48.772;8.846;2023-09-19T13:59:09;24.50;8.00
254;DHT22;590;48.772;8.846;2023-09-19T14:01:38;24.40;8.00
254;DHT22;590;48.772;8.846;2023-09-19T14:04:06;24.20;7.60
254;DHT22;590;48.772;8.846;2023-09-19T14:06:34;24.20;8.80
254;DHT22;590;48.772;8.846;2023-09-19T14:09:04;24.30;9.10
254;DHT22;590;48.772;8.846;2023-09-19T14:11:32;24.30;9.20
254;DHT22;590;48.772;8.846;2023-09-19T14:14:00;24.30;8.50
254;DHT22;590;48.772;8.846;2023-09-19T14:16:28;24.30;8.30
254;DHT22;590;48.772;8.846;2023-09-19T14:18:59;24.20;7.60
254;DHT22;590;48.772;8.846;2023-09-19T14:21:27;24.20;8.60
254;DHT22;590;48.772;8.846;2023-09-19T14:23:55;24.30;8.70
254;DHT22;590;48.772;8.846;2023-09-19T14:26:23;24.30;7.50
254;DHT22;590;48.772;8.846;2023-09-19T14:28:51;24.30;8.10
254;DHT22;590;48.772;8.846;2023-09-19T14:31:19;24.20;8.30
254;DHT22;590;48.772;8.846;2023-09-19T14:33:53;24.20;9.20
254;DHT22;590;48.772;8.846;2023-09-19T14:36:23;24.10;8.00
254;DHT22;590;48.772;8.846;2023-09-19T14:38:52;24.10;7.70
254;DHT22;590;48.772;8.846;2023-09-19T14:41:21;24.10;7.70
254;DHT22;590;48.772;8.846;2023-09-19T14:43:52;24.10;7.40
254;DHT22;590;48.772;8.846;2023-09-19T14:46:22;24.00;7.40
254;DHT22;590;48.772;8.846;2023-09-19T14:48:52;24.00;8.60
254;DHT22;590;48.772;8.846;2023-09-19T14:51:20;24.00;8.10
254;DHT22;590;48.772;8.846;2023-09-19T14:53:50;23.90;7.60
254;DHT22;590;48.772;8.846;2023-09-19T14:56:18;23.90;8.10
254;DHT22;590;48.772;8.846;2023-09-19T14:58:47;23.80;8.40
254;DHT22;590;48.772;8.846;2023-09-19T15:01:15;23.70;7.50
254;DHT22;590;48.772;8.846;2023-09-19T15:03:43;23.60;7.70
254;DHT22;590;48.772;8.846;2023-09-19T15:06:13;23.60;8.80
254;DHT22;590;48.772;8.846;2023-09-19T15:08:45;23.50;8.60
254;DHT22;590;48.772;8.846;2023-09-19T15:11:16;23.50;8.10
254;DHT22;590;48.772;8.846;2023-09-19T15:13:46;23.50;8.30
254;DHT22;590;48.772;8.846;2023-09-19T15:16:14;23.50;8.40
254;DHT22;590;48.772;8.846;2023-09-19T15:18:43;23.50;7.80
254;DHT22;590;48.772;8.846;2023-09-19T15:21:14;23.50;8.60
254;DHT22;590;48.772;8.846;2023-09-19T15:23:43;23.50;8.80
254;DHT22;590;48.772;8.846;2023-09-19T15:26:13;23.40;9.10
254;DHT22;590;48.772;8.846;2023-09-19T15:28:45;23.40;9.10
254;DHT22;590;48.772;8.846;2023-09-19T15:31:14;23.30;9.40
254;DHT22;590;48.772;8.846;2023-09-19T15:33:43;23.30;8.50
254;DHT22;590;48.772;8.846;2023-09-19T15:36:11;23.20;9.20
254;DHT22;590;48.772;8.846;2023-09-19T15:38:56;23.10;9.30
254;DHT22;590;48.772;8.846;2023-09-19T15:41:25;23.00;9.50
254;DHT22;590;48.772;8.846;2023-09-19T15:43:55;22.90;10.30
254;DHT22;590;48.772;8.846;2023-09-19T15:46:24;22.90;10.30
254;DHT22;590;48.772;8.846;2023-09-19T15:48:53;22.90;10.50
254;DHT22;590;48.772;8.846;2023-09-19T15:51:21;22.80;11.30
254;DHT22;590;48.772;8.846;2023-09-19T15:53:52;22.80;11.00
254;DHT22;590;48.772;8.846;2023-09-19T15:56:21;22.80;11.10
254;DHT22;590;48.772;8.846;2023-09-19T15:58:51;22.80;11.50
254;DHT22;590;48.772;8.846;2023-09-19T16:01:22;22.80;11.90
254;DHT22;590;48.772;8.846;2023-09-19T16:03:52;22.80;11.90
254;DHT22;590;48.772;8.846;2023-09-19T16:06:23;22.90;12.30
254;DHT22;590;48.772;8.846;2023-09-19T16:08:52;22.90;12.00
254;DHT22;590;48.772;8.846;2023-09-19T16:11:22;22.80;11.10
254;DHT22;590;48.772;8.846;2023-09-19T16:13:51;22.80;11.90
254;DHT22;590;48.772;8.846;2023-09-19T16:16:22;22.80;12.50
254;DHT22;590;48.772;8.846;2023-09-19T16:18:52;22.70;13.50
254;DHT22;590;48.772;8.846;2023-09-19T16:21:24;22.70;13.20
254;DHT22;590;48.772;8.846;2023-09-19T16:23:55;22.60;13.90
254;DHT22;590;48.772;8.846;2023-09-19T16:26:23;22.60;14.70
254;DHT22;590;48.772;8.846;2023-09-19T16:28:53;22.50;14.00
254;DHT22;590;48.772;8.846;2023-09-19T16:31:22;22.50;13.90
254;DHT22;590;48.772;8.846;2023-09-19T16:33:50;22.50;13.90
254;DHT22;590;48.772;8.846;2023-09-19T16:36:19;22.40;14.30
254;DHT22;590;48.772;8.846;2023-09-19T16:38:48;22.40;15.30
254;DHT22;590;48.772;8.846;2023-09-19T16:41:16;22.30;15.40
254;DHT22;590;48.772;8.846;2023-09-19T16:43:46;22.30;15.80
254;DHT22;590;48.772;8.846;2023-09-19T16:46:14;22.20;15.40
254;DHT22;590;48.772;8.846;2023-09-19T16:48:47;22.20;16.30
254;DHT22;590;48.772;8.846;2023-09-19T16:51:30;22.10;16.40
254;DHT22;590;48.772;8.846;2023-09-19T16:53:59;22.00;16.80
254;DHT22;590;48.772;8.846;2023-09-19T16:56:28;22.00;17.70
254;DHT22;590;48.772;8.846;2023-09-19T16:58:59;21.90;18.10
254;DHT22;590;48.772;8.846;2023-09-19T17:01:28;21.90;17.60
254;DHT22;590;48.772;8.846;2023-09-19T17:04:00;21.80;18.50
254;DHT22;590;48.772;8.846;2023-09-19T17:06:30;21.70;17.90
254;DHT22;590;48.772;8.846;2023-09-19T17:08:58;21.60;18.40
254;DHT22;590;48.772;8.846;2023-09-19T17:11:26;21.60;18.70
254;DHT22;590;48.772;8.846;2023-09-19T17:13:54;21.50;18.80